CheckWX is a tool to help pilots better visualize weather data.  It is not intended as a substitute for an official pre-flight weather briefing.

23:46:50 UTC

KICT TAF
Wichita Dwight D Eisenhower National Airport
Wichita, Kansas, USA
KICT 241733Z 2418/2518 01016G24KT P6SM BKN015 FM242200 35013KT P6SM BKN035 FM250300 32006KT P6SM BKN090 FM251400 32012KT P6SM SCT035

Feb-24@
18:00 UTC

Feb-24 @ 18:00 UTC

Feb-24@
22:00 UTC

Feb-24 @ 22:00 UTC

KICT 241733Z 2418/2518 01016G24KT P6SM BKN015

Expired

Wind
  • 010° at 16 KTS
  • {Gusting to 24 KTS
Cloud Levels
  • Broken at 1,500' AGL

Feb-24@
22:00 UTC

Feb-24 @ 22:00 UTC

Feb-25@
03:00 UTC

Feb-25 @ 03:00 UTC

FM242200 35013KT P6SM BKN035

From

From Standard forecast or significant change

Wind
  • 350° at 13 KTS
Cloud Levels
  • Broken at 3,500' AGL

Feb-25@
03:00 UTC

Feb-25 @ 03:00 UTC

Feb-25@
14:00 UTC

Feb-25 @ 14:00 UTC

FM250300 32006KT P6SM BKN090

From

From Standard forecast or significant change

Wind
  • 320° at 6 KTS
Cloud Levels
  • Broken at 9,000' AGL

Feb-25@
14:00 UTC

Feb-25 @ 14:00 UTC

Feb-25@
18:00 UTC

Feb-25 @ 18:00 UTC

FM251400 32012KT P6SM SCT035

From

From Standard forecast or significant change

Wind
  • 320° at 12 KTS
Cloud Levels
  • Scattered at 3,500' AGL